sensor_id;sensor_type;location;lat;lon;timestamp;pressure;altitude;pressure_sealevel;temperature;humidity
5126;BME280;63008;53.112;8.896;2023-05-29T00:01:10;102304.91;;;10.35;86.41
5126;BME280;63008;53.112;8.896;2023-05-29T00:03:11;102304.44;;;10.28;86.56
5126;BME280;63008;53.112;8.896;2023-05-29T00:05:13;102310.41;;;10.35;86.21
5126;BME280;63008;53.112;8.896;2023-05-29T00:07:16;102305.34;;;10.23;86.85
5126;BME280;63008;53.112;8.896;2023-05-29T00:09:17;102306.84;;;10.11;87.52
5126;BME280;63008;53.112;8.896;2023-05-29T00:11:18;102309.38;;;10.07;87.38
5126;BME280;63008;53.112;8.896;2023-05-29T00:13:19;102318.69;;;10.06;87.70
5126;BME280;63008;53.112;8.896;2023-05-29T00:15:20;102312.69;;;10.04;87.71
5126;BME280;63008;53.112;8.896;2023-05-29T00:17:21;102312.69;;;10.04;87.62
5126;BME280;63008;53.112;8.896;2023-05-29T00:19:22;102312.81;;;10.18;87.28
5126;BME280;63008;53.112;8.896;2023-05-29T00:21:24;102310.41;;;10.11;87.23
5126;BME280;63008;53.112;8.896;2023-05-29T00:23:25;102316.50;;;10.03;87.47
5126;BME280;63008;53.112;8.896;2023-05-29T00:25:26;102317.00;;;10.10;87.25
5126;BME280;63008;53.112;8.896;2023-05-29T00:27:27;102318.91;;;10.10;87.35
5126;BME280;63008;53.112;8.896;2023-05-29T00:29:28;102327.97;;;10.10;87.16
5126;BME280;63008;53.112;8.896;2023-05-29T00:31:30;102321.13;;;10.08;87.00
5126;BME280;63008;53.112;8.896;2023-05-29T00:33:31;102326.41;;;10.04;86.95
5126;BME280;63008;53.112;8.896;2023-05-29T00:35:32;102329.22;;;9.94;86.88
5126;BME280;63008;53.112;8.896;2023-05-29T00:37:33;102334.19;;;9.92;87.22
5126;BME280;63008;53.112;8.896;2023-05-29T00:39:34;102349.06;;;9.86;87.41
5126;BME280;63008;53.112;8.896;2023-05-29T00:41:35;102341.44;;;9.78;87.56
5126;BME280;63008;53.112;8.896;2023-05-29T00:43:36;102341.19;;;9.75;87.88
5126;BME280;63008;53.112;8.896;2023-05-29T00:45:37;102342.28;;;9.79;88.00
5126;BME280;63008;53.112;8.896;2023-05-29T00:47:38;102353.53;;;9.77;87.98
5126;BME280;63008;53.112;8.896;2023-05-29T00:49:39;102346.22;;;9.68;88.18
5126;BME280;63008;53.112;8.896;2023-05-29T00:51:41;102350.53;;;9.74;88.21
5126;BME280;63008;53.112;8.896;2023-05-29T00:53:43;102351.94;;;9.71;87.82
5126;BME280;63008;53.112;8.896;2023-05-29T00:55:45;102348.47;;;9.61;88.04
5126;BME280;63008;53.112;8.896;2023-05-29T00:57:46;102353.91;;;9.66;87.88
5126;BME280;63008;53.112;8.896;2023-05-29T00:59:48;102348.19;;;9.62;87.61
5126;BME280;63008;53.112;8.896;2023-05-29T01:01:51;102351.22;;;9.61;87.57
5126;BME280;63008;53.112;8.896;2023-05-29T01:03:55;102346.28;;;9.58;87.57
5126;BME280;63008;53.112;8.896;2023-05-29T01:05:58;102350.44;;;9.55;87.71
5126;BME280;63008;53.112;8.896;2023-05-29T01:07:59;102356.47;;;9.57;87.76
5126;BME280;63008;53.112;8.896;2023-05-29T01:10:00;102354.00;;;9.56;87.50
5126;BME280;63008;53.112;8.896;2023-05-29T01:12:14;102363.09;;;9.51;87.65
5126;BME280;63008;53.112;8.896;2023-05-29T01:14:25;102349.66;;;9.50;87.64
5126;BME280;63008;53.112;8.896;2023-05-29T01:16:35;102353.72;;;9.57;87.27
5126;BME280;63008;53.112;8.896;2023-05-29T01:19:01;102356.13;;;9.64;86.57
5126;BME280;63008;53.112;8.896;2023-05-29T01:21:11;102356.94;;;9.64;86.76
5126;BME280;63008;53.112;8.896;2023-05-29T01:23:27;102357.44;;;9.66;86.23
5126;BME280;63008;53.112;8.896;2023-05-29T01:25:54;102372.13;;;9.52;86.31
5126;BME280;63008;53.112;8.896;2023-05-29T01:27:57;102373.28;;;9.46;86.49
5126;BME280;63008;53.112;8.896;2023-05-29T01:30:02;102371.53;;;9.55;86.16
5126;BME280;63008;53.112;8.896;2023-05-29T01:32:07;102369.84;;;9.59;85.86
5126;BME280;63008;53.112;8.896;2023-05-29T01:34:08;102369.63;;;9.55;85.57
5126;BME280;63008;53.112;8.896;2023-05-29T01:36:09;102364.78;;;9.42;85.99
5126;BME280;63008;53.112;8.896;2023-05-29T01:38:11;102363.16;;;9.41;85.91
5126;BME280;63008;53.112;8.896;2023-05-29T01:40:13;102366.06;;;9.55;85.11
5126;BME280;63008;53.112;8.896;2023-05-29T01:42:14;102364.72;;;9.52;85.01
5126;BME280;63008;53.112;8.896;2023-05-29T01:44:15;102364.16;;;9.55;85.03
5126;BME280;63008;53.112;8.896;2023-05-29T01:46:18;102364.72;;;9.52;84.49
5126;BME280;63008;53.112;8.896;2023-05-29T01:48:19;102369.66;;;9.50;84.55
5126;BME280;63008;53.112;8.896;2023-05-29T01:50:22;102369.97;;;9.49;85.10
5126;BME280;63008;53.112;8.896;2023-05-29T01:52:24;102368.13;;;9.39;85.03
5126;BME280;63008;53.112;8.896;2023-05-29T01:54:25;102365.63;;;9.43;85.05
5126;BME280;63008;53.112;8.896;2023-05-29T01:56:27;102375.28;;;9.30;85.37
5126;BME280;63008;53.112;8.896;2023-05-29T01:58:29;102379.59;;;9.41;85.27
5126;BME280;63008;53.112;8.896;2023-05-29T02:00:31;102379.13;;;9.34;84.99
5126;BME280;63008;53.112;8.896;2023-05-29T02:02:36;102373.91;;;9.33;85.08
5126;BME280;63008;53.112;8.896;2023-05-29T02:04:37;102379.19;;;9.24;85.33
5126;BME280;63008;53.112;8.896;2023-05-29T02:06:39;102373.97;;;9.28;85.15
5126;BME280;63008;53.112;8.896;2023-05-29T02:08:40;102374.56;;;9.20;85.63
5126;BME280;63008;53.112;8.896;2023-05-29T02:10:41;102379.28;;;9.09;86.00
5126;BME280;63008;53.112;8.896;2023-05-29T02:12:42;102375.13;;;9.17;85.75
5126;BME280;63008;53.112;8.896;2023-05-29T02:14:43;102383.34;;;9.17;85.34
5126;BME280;63008;53.112;8.896;2023-05-29T02:16:44;102381.19;;;9.14;85.71
5126;BME280;63008;53.112;8.896;2023-05-29T02:18:46;102380.97;;;9.05;85.47
5126;BME280;63008;53.112;8.896;2023-05-29T02:20:46;102386.41;;;9.10;85.57
5126;BME280;63008;53.112;8.896;2023-05-29T02:22:47;102388.41;;;8.95;85.72
5126;BME280;63008;53.112;8.896;2023-05-29T02:24:48;102394.25;;;8.84;86.47
5126;BME280;63008;53.112;8.896;2023-05-29T02:26:49;102383.28;;;8.79;86.76
5126;BME280;63008;53.112;8.896;2023-05-29T02:28:51;102390.41;;;8.80;86.84
5126;BME280;63008;53.112;8.896;2023-05-29T02:30:52;102391.75;;;8.82;86.87
5126;BME280;63008;53.112;8.896;2023-05-29T02:32:53;102390.94;;;8.87;86.54
5126;BME280;63008;53.112;8.896;2023-05-29T02:34:54;102404.91;;;8.80;86.72
5126;BME280;63008;53.112;8.896;2023-05-29T02:36:55;102393.72;;;8.82;86.58
5126;BME280;63008;53.112;8.896;2023-05-29T02:38:56;102395.34;;;8.83;87.00
5126;BME280;63008;53.112;8.896;2023-05-29T02:40:57;102389.34;;;8.81;86.97
5126;BME280;63008;53.112;8.896;2023-05-29T02:42:58;102398.63;;;8.80;86.76
5126;BME280;63008;53.112;8.896;2023-05-29T02:44:59;102397.78;;;8.84;86.86
5126;BME280;63008;53.112;8.896;2023-05-29T02:47:00;102393.72;;;8.77;87.07
5126;BME280;63008;53.112;8.896;2023-05-29T02:49:01;102394.81;;;8.81;86.87
5126;BME280;63008;53.112;8.896;2023-05-29T02:51:02;102395.63;;;8.76;86.84
5126;BME280;63008;53.112;8.896;2023-05-29T02:53:02;102394.56;;;8.72;87.38
5126;BME280;63008;53.112;8.896;2023-05-29T02:55:04;102395.88;;;8.85;87.03
5126;BME280;63008;53.112;8.896;2023-05-29T02:57:06;102396.97;;;8.79;87.26
5126;BME280;63008;53.112;8.896;2023-05-29T02:59:07;102397.53;;;8.76;87.12
5126;BME280;63008;53.112;8.896;2023-05-29T03:01:08;102391.03;;;8.62;87.82
5126;BME280;63008;53.112;8.896;2023-05-29T03:03:09;102394.09;;;8.50;88.00
5126;BME280;63008;53.112;8.896;2023-05-29T03:05:10;102396.84;;;8.55;88.27
5126;BME280;63008;53.112;8.896;2023-05-29T03:07:11;102394.88;;;8.61;87.96
5126;BME280;63008;53.112;8.896;2023-05-29T03:09:13;102400.09;;;8.57;87.83
5126;BME280;63008;53.112;8.896;2023-05-29T03:11:14;102398.75;;;8.55;88.16
5126;BME280;63008;53.112;8.896;2023-05-29T03:13:15;102395.50;;;8.48;88.36
5126;BME280;63008;53.112;8.896;2023-05-29T03:15:17;102393.84;;;8.42;89.05
5126;BME280;63008;53.112;8.896;2023-05-29T03:17:20;102392.78;;;8.38;89.10
5126;BME280;63008;53.112;8.896;2023-05-29T03:19:21;102393.31;;;8.40;89.19
5126;BME280;63008;53.112;8.896;2023-05-29T03:21:22;102383.22;;;8.30;89.45
5126;BME280;63008;53.112;8.896;2023-05-29T03:23:24;102380.25;;;8.22;90.07
5126;BME280;63008;53.112;8.896;2023-05-29T03:25:25;102379.41;;;8.16;90.87
5126;BME280;63008;53.112;8.896;2023-05-29T03:27:26;102375.59;;;8.12;91.28
5126;BME280;63008;53.112;8.896;2023-05-29T03:29:27;102379.44;;;8.06;91.33
5126;BME280;63008;53.112;8.896;2023-05-29T03:31:28;102383.00;;;8.07;91.52
5126;BME280;63008;53.112;8.896;2023-05-29T03:33:29;102378.06;;;8.09;91.81
5126;BME280;63008;53.112;8.896;2023-05-29T03:35:30;102383.84;;;8.02;92.01
5126;BME280;63008;53.112;8.896;2023-05-29T03:37:30;102379.72;;;8.05;91.75
5126;BME280;63008;53.112;8.896;2023-05-29T03:39:31;102376.44;;;8.03;91.76
5126;BME280;63008;53.112;8.896;2023-05-29T03:41:32;102375.63;;;8.07;92.02
5126;BME280;63008;53.112;8.896;2023-05-29T03:43:33;102381.91;;;8.13;91.76
5126;BME280;63008;53.112;8.896;2023-05-29T03:45:34;102383.53;;;8.09;91.19
5126;BME280;63008;53.112;8.896;2023-05-29T03:47:35;102390.09;;;8.13;90.94
5126;BME280;63008;53.112;8.896;2023-05-29T03:49:37;102385.16;;;8.15;90.68
5126;BME280;63008;53.112;8.896;2023-05-29T03:51:38;102381.34;;;8.21;90.24
5126;BME280;63008;53.112;8.896;2023-05-29T03:53:39;102391.47;;;8.20;90.19
5126;BME280;63008;53.112;8.896;2023-05-29T03:55:40;102386.50;;;8.17;90.42
5126;BME280;63008;53.112;8.896;2023-05-29T03:57:41;102395.28;;;8.14;90.78
5126;BME280;63008;53.112;8.896;2023-05-29T03:59:42;102394.47;;;8.19;90.48
5126;BME280;63008;53.112;8.896;2023-05-29T04:01:43;102395.81;;;8.16;90.55
5126;BME280;63008;53.112;8.896;2023-05-29T04:03:44;102396.66;;;8.22;90.28
5126;BME280;63008;53.112;8.896;2023-05-29T04:05:45;102407.91;;;8.20;90.39
5126;BME280;63008;53.112;8.896;2023-05-29T04:07:46;102403.22;;;8.16;90.36
5126;BME280;63008;53.112;8.896;2023-05-29T04:09:47;102407.59;;;8.22;90.39
5126;BME280;63008;53.112;8.896;2023-05-29T04:11:48;102412.53;;;8.20;90.20
5126;BME280;63008;53.112;8.896;2023-05-29T04:13:49;102408.69;;;8.16;90.15
5126;BME280;63008;53.112;8.896;2023-05-29T04:15:50;102411.16;;;8.22;90.01
5126;BME280;63008;53.112;8.896;2023-05-29T04:17:54;102416.34;;;8.24;89.79
5126;BME280;63008;53.112;8.896;2023-05-29T04:19:55;102422.91;;;8.28;89.63
5126;BME280;63008;53.112;8.896;2023-05-29T04:21:56;102427.56;;;8.22;89.57
5126;BME280;63008;53.112;8.896;2023-05-29T04:23:57;102430.56;;;8.26;89.39
5126;BME280;63008;53.112;8.896;2023-05-29T04:25:58;102419.09;;;8.29;89.31
5126;BME280;63008;53.112;8.896;2023-05-29T04:28:01;102423.44;;;8.35;88.74
5126;BME280;63008;53.112;8.896;2023-05-29T04:30:05;102423.13;;;8.46;88.69
5126;BME280;63008;53.112;8.896;2023-05-29T04:32:06;102421.75;;;8.49;87.93
5126;BME280;63008;53.112;8.896;2023-05-29T04:34:08;102425.59;;;8.48;88.01
5126;BME280;63008;53.112;8.896;2023-05-29T04:36:09;102426.41;;;8.48;87.68
5126;BME280;63008;53.112;8.896;2023-05-29T04:38:11;102427.47;;;8.52;87.57
5126;BME280;63008;53.112;8.896;2023-05-29T04:40:12;102430.69;;;8.69;86.99
5126;BME280;63008;53.112;8.896;2023-05-29T04:42:17;102430.94;;;8.78;86.21
5126;BME280;63008;53.112;8.896;2023-05-29T04:44:19;102431.78;;;8.73;86.28
5126;BME280;63008;53.112;8.896;2023-05-29T04:46:20;102429.78;;;8.89;85.97
5126;BME280;63008;53.112;8.896;2023-05-29T04:48:21;102433.59;;;8.93;85.53
5126;BME280;63008;53.112;8.896;2023-05-29T04:50:22;102436.28;;;9.02;85.50
5126;BME280;63008;53.112;8.896;2023-05-29T04:52:23;102428.09;;;9.02;85.09
5126;BME280;63008;53.112;8.896;2023-05-29T04:54:24;102437.03;;;9.18;84.51
5126;BME280;63008;53.112;8.896;2023-05-29T04:56:25;102437.25;;;9.26;83.69
5126;BME280;63008;53.112;8.896;2023-05-29T04:58:27;102443.56;;;9.27;83.64
5126;BME280;63008;53.112;8.896;2023-05-29T05:00:28;102446.56;;;9.25;83.38
5126;BME280;63008;53.112;8.896;2023-05-29T05:02:29;102455.31;;;9.27;83.52
5126;BME280;63008;53.112;8.896;2023-05-29T05:04:30;102460.22;;;9.30;83.14
5126;BME280;63008;53.112;8.896;2023-05-29T05:06:31;102460.13;;;9.45;82.83
5126;BME280;63008;53.112;8.896;2023-05-29T05:08:32;102461.75;;;9.51;82.66
5126;BME280;63008;53.112;8.896;2023-05-29T05:10:33;102465.81;;;9.54;81.49
5126;BME280;63008;53.112;8.896;2023-05-29T05:12:34;102465.78;;;9.64;81.81
5126;BME280;63008;53.112;8.896;2023-05-29T05:14:35;102465.94;;;9.77;80.89
5126;BME280;63008;53.112;8.896;2023-05-29T05:16:36;102458.75;;;9.81;80.76
5126;BME280;63008;53.112;8.896;2023-05-29T05:18:38;102467.19;;;9.90;80.46
5126;BME280;63008;53.112;8.896;2023-05-29T05:20:39;102460.06;;;9.89;79.30
5126;BME280;63008;53.112;8.896;2023-05-29T05:22:40;102460.31;;;9.92;79.71
5126;BME280;63008;53.112;8.896;2023-05-29T05:24:41;102455.91;;;9.96;79.62
5126;BME280;63008;53.112;8.896;2023-05-29T05:26:42;102449.28;;;10.02;79.29
5126;BME280;63008;53.112;8.896;2023-05-29T05:28:43;102451.41;;;10.10;79.31
5126;BME280;63008;53.112;8.896;2023-05-29T05:30:44;102460.09;;;10.22;77.96
5126;BME280;63008;53.112;8.896;2023-05-29T05:32:45;102456.03;;;10.15;77.95
5126;BME280;63008;53.112;8.896;2023-05-29T05:34:46;102459.53;;;10.20;77.65
5126;BME280;63008;53.112;8.896;2023-05-29T05:36:47;102452.66;;;10.23;76.97
5126;BME280;63008;53.112;8.896;2023-05-29T05:38:48;102447.13;;;10.28;77.66
5126;BME280;63008;53.112;8.896;2023-05-29T05:40:49;102457.34;;;10.46;77.33
5126;BME280;63008;53.112;8.896;2023-05-29T05:42:50;102448.13;;;10.37;76.77
5126;BME280;63008;53.112;8.896;2023-05-29T05:44:51;102452.16;;;10.44;76.87
5126;BME280;63008;53.112;8.896;2023-05-29T05:46:52;102453.50;;;10.47;76.02
5126;BME280;63008;53.112;8.896;2023-05-29T05:48:53;102451.41;;;10.62;76.63
5126;BME280;63008;53.112;8.896;2023-05-29T05:50:57;102456.41;;;10.79;75.53
5126;BME280;63008;53.112;8.896;2023-05-29T05:52:58;102455.44;;;10.70;75.64
5126;BME280;63008;53.112;8.896;2023-05-29T05:54:59;102454.16;;;10.86;75.68
5126;BME280;63008;53.112;8.896;2023-05-29T05:57:00;102456.59;;;10.87;74.46
5126;BME280;63008;53.112;8.896;2023-05-29T05:59:01;102454.66;;;11.11;75.50
5126;BME280;63008;53.112;8.896;2023-05-29T06:01:02;102449.03;;;10.97;73.28
5126;BME280;63008;53.112;8.896;2023-05-29T06:03:03;102452.03;;;11.01;73.81
5126;BME280;63008;53.112;8.896;2023-05-29T06:05:05;102450.47;;;10.95;73.09
5126;BME280;63008;53.112;8.896;2023-05-29T06:07:07;102453.72;;;10.97;73.26
5126;BME280;63008;53.112;8.896;2023-05-29T06:09:09;102463.25;;;11.04;73.36
5126;BME280;63008;53.112;8.896;2023-05-29T06:11:11;102461.31;;;11.05;72.77
5126;BME280;63008;53.112;8.896;2023-05-29T06:13:12;102468.38;;;11.11;72.25
5126;BME280;63008;53.112;8.896;2023-05-29T06:15:13;102467.84;;;11.09;72.28
5126;BME280;63008;53.112;8.896;2023-05-29T06:17:15;102468.31;;;11.16;72.49
5126;BME280;63008;53.112;8.896;2023-05-29T06:19:16;102484.13;;;11.24;72.60
5126;BME280;63008;53.112;8.896;2023-05-29T06:21:17;102473.72;;;11.21;72.41
5126;BME280;63008;53.112;8.896;2023-05-29T06:23:18;102476.34;;;11.31;72.61
5126;BME280;63008;53.112;8.896;2023-05-29T06:25:19;102479.44;;;11.43;73.11
5126;BME280;63008;53.112;8.896;2023-05-29T06:27:20;102479.59;;;11.56;72.85
5126;BME280;63008;53.112;8.896;2023-05-29T06:29:24;102479.22;;;11.63;71.88
5126;BME280;63008;53.112;8.896;2023-05-29T06:31:25;102483.66;;;11.59;71.49
5126;BME280;63008;53.112;8.896;2023-05-29T06:33:26;102479.78;;;11.60;71.68
5126;BME280;63008;53.112;8.896;2023-05-29T06:35:27;102472.91;;;11.39;71.77
5126;BME280;63008;53.112;8.896;2023-05-29T06:37:28;102471.53;;;11.60;72.15
5126;BME280;63008;53.112;8.896;2023-05-29T06:39:29;102477.31;;;11.77;71.18
5126;BME280;63008;53.112;8.896;2023-05-29T06:41:30;102477.44;;;11.85;70.71
5126;BME280;63008;53.112;8.896;2023-05-29T06:43:31;102474.22;;;11.97;70.60
5126;BME280;63008;53.112;8.896;2023-05-29T06:45:31;102468.03;;;11.73;71.87
5126;BME280;63008;53.112;8.896;2023-05-29T06:47:32;102476.81;;;11.75;71.82
5126;BME280;63008;53.112;8.896;2023-05-29T06:49:33;102460.91;;;11.72;71.59
5126;BME280;63008;53.112;8.896;2023-05-29T06:51:34;102461.16;;;11.89;71.02
5126;BME280;63008;53.112;8.896;2023-05-29T06:53:36;102462.28;;;11.88;70.81
5126;BME280;63008;53.112;8.896;2023-05-29T06:55:38;102465.25;;;11.91;71.70
5126;BME280;63008;53.112;8.896;2023-05-29T06:57:41;102473.66;;;12.00;70.36
5126;BME280;63008;53.112;8.896;2023-05-29T06:59:42;102468.16;;;12.00;71.50
5126;BME280;63008;53.112;8.896;2023-05-29T07:01:43;102470.09;;;12.13;70.64
5126;BME280;63008;53.112;8.896;2023-05-29T07:03:44;102474.22;;;12.29;71.28
5126;BME280;63008;53.112;8.896;2023-05-29T07:05:45;102470.44;;;12.25;69.99
5126;BME280;63008;53.112;8.896;2023-05-29T07:07:45;102472.59;;;12.41;69.44
5126;BME280;63008;53.112;8.896;2023-05-29T07:09:46;102473.94;;;12.30;68.90
5126;BME280;63008;53.112;8.896;2023-05-29T07:11:47;102465.84;;;12.20;69.24
5126;BME280;63008;53.112;8.896;2023-05-29T07:13:48;102466.16;;;12.19;69.84
5126;BME280;63008;53.112;8.896;2023-05-29T07:15:50;102468.03;;;12.37;69.39
5126;BME280;63008;53.112;8.896;2023-05-29T07:17:51;102475.47;;;12.36;69.72
5126;BME280;63008;53.112;8.896;2023-05-29T07:19:52;102479.06;;;12.50;68.13
5126;BME280;63008;53.112;8.896;2023-05-29T07:21:54;102486.03;;;12.74;68.03
5126;BME280;63008;53.112;8.896;2023-05-29T07:23:55;102478.47;;;12.80;67.47
5126;BME280;63008;53.112;8.896;2023-05-29T07:25:56;102490.66;;;12.92;67.07
5126;BME280;63008;53.112;8.896;2023-05-29T07:27:57;102484.81;;;13.07;66.63
5126;BME280;63008;53.112;8.896;2023-05-29T07:29:58;102488.19;;;13.18;67.26
5126;BME280;63008;53.112;8.896;2023-05-29T07:31:59;102490.03;;;13.22;65.40
5126;BME280;63008;53.112;8.896;2023-05-29T07:34:00;102489.19;;;13.22;65.51
5126;BME280;63008;53.112;8.896;2023-05-29T07:36:01;102483.84;;;13.39;65.59
5126;BME280;63008;53.112;8.896;2023-05-29T07:38:02;102485.56;;;13.48;65.67
5126;BME280;63008;53.112;8.896;2023-05-29T07:40:04;102483.25;;;13.28;66.12
5126;BME280;63008;53.112;8.896;2023-05-29T07:42:06;102484.13;;;13.37;65.16
5126;BME280;63008;53.112;8.896;2023-05-29T07:44:07;102484.63;;;13.53;65.60
5126;BME280;63008;53.112;8.896;2023-05-29T07:46:08;102494.91;;;13.61;65.52
5126;BME280;63008;53.112;8.896;2023-05-29T07:48:09;102484.31;;;13.54;64.71
5126;BME280;63008;53.112;8.896;2023-05-29T07:50:10;102489.41;;;13.61;64.99
5126;BME280;63008;53.112;8.896;2023-05-29T07:52:11;102487.63;;;13.78;65.10
5126;BME280;63008;53.112;8.896;2023-05-29T07:54:12;102487.91;;;13.99;62.86
5126;BME280;63008;53.112;8.896;2023-05-29T07:56:13;102485.97;;;13.99;63.98
5126;BME280;63008;53.112;8.896;2023-05-29T07:58:14;102483.59;;;13.84;64.18
5126;BME280;63008;53.112;8.896;2023-05-29T08:00:17;102484.44;;;13.85;64.14
5126;BME280;63008;53.112;8.896;2023-05-29T08:02:18;102489.94;;;13.85;64.20
5126;BME280;63008;53.112;8.896;2023-05-29T08:04:19;102485.63;;;13.92;64.26
5126;BME280;63008;53.112;8.896;2023-05-29T08:06:20;102492.19;;;14.05;63.03
5126;BME280;63008;53.112;8.896;2023-05-29T08:08:21;102491.34;;;14.18;63.06
5126;BME280;63008;53.112;8.896;2023-05-29T08:10:22;102498.97;;;14.43;61.13
5126;BME280;63008;53.112;8.896;2023-05-29T08:12:23;102503.59;;;14.56;62.82
5126;BME280;63008;53.112;8.896;2023-05-29T08:14:24;102503.66;;;14.64;61.88
5126;BME280;63008;53.112;8.896;2023-05-29T08:16:26;102503.84;;;14.46;61.20
5126;BME280;63008;53.112;8.896;2023-05-29T08:18:30;102499.94;;;14.77;61.35
5126;BME280;63008;53.112;8.896;2023-05-29T08:20:31;102501.75;;;14.81;60.20
5126;BME280;63008;53.112;8.896;2023-05-29T08:22:32;102495.84;;;14.66;60.36
5126;BME280;63008;53.112;8.896;2023-05-29T08:24:34;102499.53;;;14.92;61.20
5126;BME280;63008;53.112;8.896;2023-05-29T08:26:35;102512.19;;;14.93;59.44
5126;BME280;63008;53.112;8.896;2023-05-29T08:28:36;102505.97;;;14.70;60.16
5126;BME280;63008;53.112;8.896;2023-05-29T08:30:37;102502.00;;;14.63;58.84
5126;BME280;63008;53.112;8.896;2023-05-29T08:32:38;102509.13;;;14.94;60.00
5126;BME280;63008;53.112;8.896;2023-05-29T08:34:39;102501.84;;;15.07;58.57
5126;BME280;63008;53.112;8.896;2023-05-29T08:36:42;102505.88;;;15.40;58.07
5126;BME280;63008;53.112;8.896;2023-05-29T08:38:43;102497.59;;;15.74;58.46
5126;BME280;63008;53.112;8.896;2023-05-29T08:40:44;102504.72;;;15.41;57.88
5126;BME280;63008;53.112;8.896;2023-05-29T08:42:48;102499.22;;;15.49;58.03
5126;BME280;63008;53.112;8.896;2023-05-29T08:44:53;102498.91;;;15.68;56.98
5126;BME280;63008;53.112;8.896;2023-05-29T08:47:01;102496.75;;;15.39;57.82
5126;BME280;63008;53.112;8.896;2023-05-29T08:49:03;102499.28;;;15.19;58.04
5126;BME280;63008;53.112;8.896;2023-05-29T08:51:06;102493.19;;;15.47;59.46
5126;BME280;63008;53.112;8.896;2023-05-29T08:53:09;102500.69;;;15.81;58.45
5126;BME280;63008;53.112;8.896;2023-05-29T08:55:10;102498.06;;;16.01;57.17
5126;BME280;63008;53.112;8.896;2023-05-29T08:57:12;102499.22;;;15.83;56.84
5126;BME280;63008;53.112;8.896;2023-05-29T08:59:13;102508.16;;;16.23;56.37
5126;BME280;63008;53.112;8.896;2023-05-29T09:01:14;102500.13;;;16.47;58.03
5126;BME280;63008;53.112;8.896;2023-05-29T09:03:16;102502.38;;;16.61;54.70
5126;BME280;63008;53.112;8.896;2023-05-29T09:05:18;102498.97;;;16.56;53.14
5126;BME280;63008;53.112;8.896;2023-05-29T09:07:19;102504.84;;;16.54;55.81
5126;BME280;63008;53.112;8.896;2023-05-29T09:09:20;102503.59;;;16.35;55.68
5126;BME280;63008;53.112;8.896;2023-05-29T09:11:21;102497.06;;;16.23;55.31
5126;BME280;63008;53.112;8.896;2023-05-29T09:13:22;102495.44;;;16.39;60.00
5126;BME280;63008;53.112;8.896;2023-05-29T09:15:23;102497.06;;;16.48;57.97
5126;BME280;63008;53.112;8.896;2023-05-29T09:17:30;102488.06;;;16.51;55.31
5126;BME280;63008;53.112;8.896;2023-05-29T09:19:32;102490.22;;;16.83;55.37
5126;BME280;63008;53.112;8.896;2023-05-29T09:21:38;102489.38;;;16.91;56.38
5126;BME280;63008;53.112;8.896;2023-05-29T09:23:39;102493.38;;;17.31;55.26
5126;BME280;63008;53.112;8.896;2023-05-29T09:25:43;102496.34;;;17.26;54.30
5126;BME280;63008;53.112;8.896;2023-05-29T09:27:44;102494.13;;;17.69;53.63
5126;BME280;63008;53.112;8.896;2023-05-29T09:29:45;102496.41;;;17.67;53.30
5126;BME280;63008;53.112;8.896;2023-05-29T09:31:47;102491.19;;;18.06;51.41
5126;BME280;63008;53.112;8.896;2023-05-29T09:33:49;102489.56;;;18.38;50.10
5126;BME280;63008;53.112;8.896;2023-05-29T09:35:50;102481.19;;;18.26;50.69
5126;BME280;63008;53.112;8.896;2023-05-29T09:37:52;102490.78;;;17.96;51.41
5126;BME280;63008;53.112;8.896;2023-05-29T09:39:53;102486.88;;;17.56;52.75
5126;BME280;63008;53.112;8.896;2023-05-29T09:41:54;102499.06;;;17.84;55.38
5126;BME280;63008;53.112;8.896;2023-05-29T09:43:55;102494.34;;;18.37;51.41
5126;BME280;63008;53.112;8.896;2023-05-29T09:45:57;102493.44;;;18.57;48.66
5126;BME280;63008;53.112;8.896;2023-05-29T09:47:59;102495.78;;;18.79;48.42
5126;BME280;63008;53.112;8.896;2023-05-29T09:50:00;102481.78;;;19.47;47.13
5126;BME280;63008;53.112;8.896;2023-05-29T09:52:02;102491.03;;;19.91;46.07
5126;BME280;63008;53.112;8.896;2023-05-29T09:54:16;102494.88;;;19.47;48.42
5126;BME280;63008;53.112;8.896;2023-05-29T09:56:17;102494.06;;;19.46;50.99
5126;BME280;63008;53.112;8.896;2023-05-29T09:58:18;102493.03;;;19.78;48.21
5126;BME280;63008;53.112;8.896;2023-05-29T10:00:19;102496.78;;;19.70;46.76
5126;BME280;63008;53.112;8.896;2023-05-29T10:02:20;102497.22;;;19.33;47.42
5126;BME280;63008;53.112;8.896;2023-05-29T10:04:22;102500.66;;;18.70;49.90
5126;BME280;63008;53.112;8.896;2023-05-29T10:06:28;102490.59;;;19.13;48.08
5126;BME280;63008;53.112;8.896;2023-05-29T10:08:30;102497.19;;;19.45;48.27
5126;BME280;63008;53.112;8.896;2023-05-29T10:10:35;102490.84;;;18.96;47.95
5126;BME280;63008;53.112;8.896;2023-05-29T10:12:44;102484.03;;;18.49;52.58
5126;BME280;63008;53.112;8.896;2023-05-29T10:14:48;102486.56;;;19.74;45.67
5126;BME280;63008;53.112;8.896;2023-05-29T10:16:50;102483.31;;;19.72;47.80
5126;BME280;63008;53.112;8.896;2023-05-29T10:18:55;102483.06;;;20.17;47.73
5126;BME280;63008;53.112;8.896;2023-05-29T10:20:56;102475.28;;;19.71;46.54
5126;BME280;63008;53.112;8.896;2023-05-29T10:23:00;102475.94;;;19.52;47.85
5126;BME280;63008;53.112;8.896;2023-05-29T10:25:02;102475.97;;;18.80;49.68
5126;BME280;63008;53.112;8.896;2023-05-29T10:27:06;102471.91;;;19.38;52.20
5126;BME280;63008;53.112;8.896;2023-05-29T10:29:21;102472.44;;;19.95;46.46
5126;BME280;63008;53.112;8.896;2023-05-29T10:31:30;102476.75;;;20.62;44.00
5126;BME280;63008;53.112;8.896;2023-05-29T10:33:40;102469.38;;;20.85;45.05
5126;BME280;63008;53.112;8.896;2023-05-29T10:35:50;102483.13;;;20.47;44.40
5126;BME280;63008;53.112;8.896;2023-05-29T10:38:01;102470.34;;;20.62;45.21
5126;BME280;63008;53.112;8.896;2023-05-29T10:40:08;102468.28;;;20.59;46.22
5126;BME280;63008;53.112;8.896;2023-05-29T10:42:44;102467.44;;;20.58;44.98
5126;BME280;63008;53.112;8.896;2023-05-29T10:44:45;102464.22;;;21.18;43.97
5126;BME280;63008;53.112;8.896;2023-05-29T10:48:53;102471.81;;;21.37;41.60
5126;BME280;63008;53.112;8.896;2023-05-29T10:50:55;102471.66;;;21.30;43.70
5126;BME280;63008;53.112;8.896;2023-05-29T10:52:56;102465.00;;;21.53;41.54